Flinterduin — PEBT — position and weather

sailwx.info

Track history (hours):
 
Tides and Currents Weather Stations Pressure Air Temp Water Temp Dewpoint Dewpoint Depression Visibility Wind Speed Wind Dir Waves Ship Positions

Flinterduin

Last reported at 2016-Apr-30 14:33 UTC. Time now 2016-Apr-30 15:03 UTC.
Position N 37°01' E 012°26'.

Length 112 m; beam 15 m.

Type: Cargo ship. MMSI: 246484000.

Date/timePositionNaut miles runAvg speedWind from/ knotsBaromVisibWave heightAir tempDewpointWater temp
2016-Apr-30 14:33N 37°01' E 012°26'  
2016-Apr-27 11:22N 35°59' W 005°13'1113.8
2016-Apr-27 10:33N 35°58' W 005°27'9912.1
2016-Apr-27 02:20N 36°10' W 007°29'911.4
2016-Apr-27 01:33N 36°12' W 007°39'2311.7
2016-Apr-26 23:33N 36°18' W 008°07'1211.7
2016-Apr-26 22:33N 36°21' W 008°21'1411.5
2016-Apr-26 21:19N 36°25' W 008°38'911.5
2016-Apr-26 20:33N 36°27' W 008°49'1411.7
2016-Apr-26 19:22N 36°31' W 009°05'1011.7
2016-Apr-26 18:33N 36°34' W 009°17'1211.6
2016-Apr-26 17:30N 36°43' W 009°27'1111.6
2016-Apr-26 16:33N 36°52' W 009°34'1211.9
2016-Apr-26 15:33N 37°04' W 009°37'1211.9
2016-Apr-26 14:33N 37°15' W 009°41'1211.9
2016-Apr-26 13:31N 37°27' W 009°45'1212.0
2016-Apr-26 12:30N 37°39' W 009°48'1212.1
2016-Apr-26 11:33N 37°51' W 009°51'1212.3
2016-Apr-26 10:32N 38°03' W 009°55'1212.4
2016-Apr-26 09:32N 38°15' W 009°59'1212.5
2016-Apr-26 08:33N 38°27' W 010°02'1312.3
2016-Apr-26 07:32N 38°39' W 010°05'1212.1
2016-Apr-26 06:32N 38°51' W 010°06'1211.9
2016-Apr-26 05:32N 39°03' W 010°06'1211.6
2016-Apr-26 04:30N 39°15' W 010°06'  
2016-Apr-23 16:23N 49°55' W 004°54'910.4
2016-Apr-23 15:33N 50°03' W 004°48'1110.8
2016-Apr-23 14:33N 50°13' W 004°42'8 8.1
2016-Apr-23 13:33N 50°21' W 004°38'0 0.1
2016-Apr-23 12:33N 50°21' W 004°38'0 0.0
2016-Apr-23 11:33N 50°21' W 004°38'0 0.0
2016-Apr-23 10:31N 50°21' W 004°38'0 0.0
2016-Apr-23 09:28N 50°21' W 004°38'0 0.0
2016-Apr-23 08:28N 50°21' W 004°38'0 0.0
2016-Apr-23 07:22N 50°21' W 004°38'0 0.0
2016-Apr-23 06:31N 50°21' W 004°38'0 0.0
2016-Apr-23 05:31N 50°21' W 004°38'0 0.0
2016-Apr-23 04:31N 50°21' W 004°38'0 0.0
2016-Apr-23 03:31N 50°21' W 004°38'0 0.0
2016-Apr-23 02:31N 50°21' W 004°38'0 0.0
2016-Apr-23 01:31N 50°21' W 004°38'0 0.0
2016-Apr-23 00:31N 50°21' W 004°38'0 0.0
2016-Apr-22 23:31N 50°21' W 004°38'0 0.0
2016-Apr-22 22:25N 50°21' W 004°38'0 0.0
2016-Apr-22 21:31N 50°21' W 004°38'0 0.0
2016-Apr-22 20:31N 50°21' W 004°38'0 0.0
2016-Apr-22 19:31N 50°21' W 004°38'1 0.6
2016-Apr-22 18:33N 50°20' W 004°38'7 7.2
2016-Apr-22 17:33N 50°18' W 004°27'1010.2
2016-Apr-22 16:31N 50°19' W 004°11'4 4.0
2016-Apr-22 15:33N 50°22' W 004°08'0 0.0
2016-Apr-22 14:33N 50°22' W 004°08'0 0.0
2016-Apr-22 13:29N 50°22' W 004°08'0 0.0
2016-Apr-22 12:29N 50°22' W 004°08'0 0.0
2016-Apr-22 11:32N 50°22' W 004°08'0 0.0
2016-Apr-22 10:32N 50°22' W 004°08'0 0.0
2016-Apr-22 09:32N 50°22' W 004°08'0 0.0
2016-Apr-22 08:32N 50°22' W 004°08'0 0.0
2016-Apr-22 07:32N 50°22' W 004°08'0 0.0
2016-Apr-22 06:32N 50°22' W 004°08'0 0.0
2016-Apr-22 05:32N 50°22' W 004°08'0 0.0
2016-Apr-22 04:32N 50°22' W 004°08'0 0.0
2016-Apr-22 03:32N 50°22' W 004°08'0 0.0
2016-Apr-22 02:32N 50°22' W 004°08'0 0.0
2016-Apr-22 01:32N 50°22' W 004°08'0 0.0
2016-Apr-22 00:32N 50°22' W 004°08'0 0.0
2016-Apr-21 23:32N 50°22' W 004°08'0 0.0
2016-Apr-21 22:32N 50°22' W 004°08'0 0.0
2016-Apr-21 21:32N 50°22' W 004°08'0 0.0
2016-Apr-21 20:32N 50°22' W 004°08'0 0.0
2016-Apr-21 19:32N 50°22' W 004°08'0 0.0
2016-Apr-21 18:32N 50°22' W 004°08'0 0.0
2016-Apr-21 17:32N 50°22' W 004°08'0 0.0
2016-Apr-21 16:32N 50°22' W 004°08'0 0.0
2016-Apr-21 15:32N 50°22' W 004°08'0 0.0
2016-Apr-21 14:26N 50°22' W 004°08'0 0.0
2016-Apr-21 13:32N 50°22' W 004°08'0 0.0
2016-Apr-21 12:32N 50°22' W 004°08'0 0.0
2016-Apr-21 11:29N 50°22' W 004°08'0 0.0
2016-Apr-21 10:20N 50°22' W 004°08'0 0.0
2016-Apr-21 09:32N 50°22' W 004°08'0 0.0
2016-Apr-21 08:32N 50°22' W 004°08'0 0.0
2016-Apr-21 07:32N 50°22' W 004°08'0 0.0
2016-Apr-21 06:32N 50°22' W 004°08'4 3.8
2016-Apr-21 05:31N 50°18' W 004°09'9 9.6
2016-Apr-21 04:33N 50°14' W 003°57'9 9.2
2016-Apr-21 03:33N 50°08' W 003°45'8 8.2
2016-Apr-21 02:33N 50°09' W 003°32'9 9.3
2016-Apr-21 01:33N 50°13' W 003°18'1010.2
2016-Apr-21 00:33N 50°18' W 003°05'9 9.0
2016-Apr-20 23:33N 50°16' W 002°51'9 8.8
2016-Apr-20 22:33N 50°12' W 002°38'7 7.5
2016-Apr-20 21:33N 50°13' W 002°26'7 7.2
2016-Apr-20 20:33N 50°17' W 002°17'8 6.3
2016-Apr-20 19:15N 50°19' W 002°04'4 6.1
2016-Apr-20 18:33N 50°19' W 001°58'6 6.3
2016-Apr-20 17:33N 50°21' W 001°48'8 7.7
2016-Apr-20 16:33N 50°22' W 001°36'10 9.6
2016-Apr-20 15:33N 50°24' W 001°21'  
Track history (hours):
 
Tides and Currents Weather Stations Pressure Air Temp Water Temp Dewpoint Dewpoint Depression Visibility Wind Speed Wind Dir Waves Ship Positions

Flinterduin

Last reported at 2016-Apr-30 14:33 UTC. Time now 2016-Apr-30 15:03 UTC.
Position N 37°01' E 012°26'.

Length 112 m; beam 15 m.

Type: Cargo ship. MMSI: 246484000.

Date/timePositionNaut miles runAvg speedWind from/ knotsBaromVisibWave heightAir tempDewpointWater temp
2016-Apr-30 14:33N 37°01' E 012°26'  
2016-Apr-27 11:22N 35°59' W 005°13'1113.8
2016-Apr-27 10:33N 35°58' W 005°27'9912.1
2016-Apr-27 02:20N 36°10' W 007°29'911.4
2016-Apr-27 01:33N 36°12' W 007°39'2311.7
2016-Apr-26 23:33N 36°18' W 008°07'1211.7
2016-Apr-26 22:33N 36°21' W 008°21'1411.5
2016-Apr-26 21:19N 36°25' W 008°38'911.5
2016-Apr-26 20:33N 36°27' W 008°49'1411.7
2016-Apr-26 19:22N 36°31' W 009°05'1011.7
2016-Apr-26 18:33N 36°34' W 009°17'1211.6
2016-Apr-26 17:30N 36°43' W 009°27'1111.6
2016-Apr-26 16:33N 36°52' W 009°34'1211.9
2016-Apr-26 15:33N 37°04' W 009°37'1211.9
2016-Apr-26 14:33N 37°15' W 009°41'1211.9
2016-Apr-26 13:31N 37°27' W 009°45'1212.0
2016-Apr-26 12:30N 37°39' W 009°48'1212.1
2016-Apr-26 11:33N 37°51' W 009°51'1212.3
2016-Apr-26 10:32N 38°03' W 009°55'1212.4
2016-Apr-26 09:32N 38°15' W 009°59'1212.5
2016-Apr-26 08:33N 38°27' W 010°02'1312.3
2016-Apr-26 07:32N 38°39' W 010°05'1212.1
2016-Apr-26 06:32N 38°51' W 010°06'1211.9
2016-Apr-26 05:32N 39°03' W 010°06'1211.6
2016-Apr-26 04:30N 39°15' W 010°06'  
2016-Apr-23 16:23N 49°55' W 004°54'910.4
2016-Apr-23 15:33N 50°03' W 004°48'1110.8
2016-Apr-23 14:33N 50°13' W 004°42'8 8.1
2016-Apr-23 13:33N 50°21' W 004°38'0 0.1
2016-Apr-23 12:33N 50°21' W 004°38'0 0.0
2016-Apr-23 11:33N 50°21' W 004°38'0 0.0
2016-Apr-23 10:31N 50°21' W 004°38'0 0.0
2016-Apr-23 09:28N 50°21' W 004°38'0 0.0
2016-Apr-23 08:28N 50°21' W 004°38'0 0.0
2016-Apr-23 07:22N 50°21' W 004°38'0 0.0
2016-Apr-23 06:31N 50°21' W 004°38'0 0.0
2016-Apr-23 05:31N 50°21' W 004°38'0 0.0
2016-Apr-23 04:31N 50°21' W 004°38'0 0.0
2016-Apr-23 03:31N 50°21' W 004°38'0 0.0
2016-Apr-23 02:31N 50°21' W 004°38'0 0.0
2016-Apr-23 01:31N 50°21' W 004°38'0 0.0
2016-Apr-23 00:31N 50°21' W 004°38'0 0.0
2016-Apr-22 23:31N 50°21' W 004°38'0 0.0
2016-Apr-22 22:25N 50°21' W 004°38'0 0.0
2016-Apr-22 21:31N 50°21' W 004°38'0 0.0
2016-Apr-22 20:31N 50°21' W 004°38'0 0.0
2016-Apr-22 19:31N 50°21' W 004°38'1 0.6
2016-Apr-22 18:33N 50°20' W 004°38'7 7.2
2016-Apr-22 17:33N 50°18' W 004°27'1010.2
2016-Apr-22 16:31N 50°19' W 004°11'4 4.0
2016-Apr-22 15:33N 50°22' W 004°08'0 0.0
2016-Apr-22 14:33N 50°22' W 004°08'0 0.0
2016-Apr-22 13:29N 50°22' W 004°08'0 0.0
2016-Apr-22 12:29N 50°22' W 004°08'0 0.0
2016-Apr-22 11:32N 50°22' W 004°08'0 0.0
2016-Apr-22 10:32N 50°22' W 004°08'0 0.0
2016-Apr-22 09:32N 50°22' W 004°08'0 0.0
2016-Apr-22 08:32N 50°22' W 004°08'0 0.0
2016-Apr-22 07:32N 50°22' W 004°08'0 0.0
2016-Apr-22 06:32N 50°22' W 004°08'0 0.0
2016-Apr-22 05:32N 50°22' W 004°08'0 0.0
2016-Apr-22 04:32N 50°22' W 004°08'0 0.0
2016-Apr-22 03:32N 50°22' W 004°08'0 0.0
2016-Apr-22 02:32N 50°22' W 004°08'0 0.0
2016-Apr-22 01:32N 50°22' W 004°08'0 0.0
2016-Apr-22 00:32N 50°22' W 004°08'0 0.0
2016-Apr-21 23:32N 50°22' W 004°08'0 0.0
2016-Apr-21 22:32N 50°22' W 004°08'0 0.0
2016-Apr-21 21:32N 50°22' W 004°08'0 0.0
2016-Apr-21 20:32N 50°22' W 004°08'0 0.0
2016-Apr-21 19:32N 50°22' W 004°08'0 0.0
2016-Apr-21 18:32N 50°22' W 004°08'0 0.0
2016-Apr-21 17:32N 50°22' W 004°08'0 0.0
2016-Apr-21 16:32N 50°22' W 004°08'0 0.0
2016-Apr-21 15:32N 50°22' W 004°08'0 0.0
2016-Apr-21 14:26N 50°22' W 004°08'0 0.0
2016-Apr-21 13:32N 50°22' W 004°08'0 0.0
2016-Apr-21 12:32N 50°22' W 004°08'0 0.0
2016-Apr-21 11:29N 50°22' W 004°08'0 0.0
2016-Apr-21 10:20N 50°22' W 004°08'0 0.0
2016-Apr-21 09:32N 50°22' W 004°08'0 0.0
2016-Apr-21 08:32N 50°22' W 004°08'0 0.0
2016-Apr-21 07:32N 50°22' W 004°08'0 0.0
2016-Apr-21 06:32N 50°22' W 004°08'4 3.8
2016-Apr-21 05:31N 50°18' W 004°09'9 9.6
2016-Apr-21 04:33N 50°14' W 003°57'9 9.2
2016-Apr-21 03:33N 50°08' W 003°45'8 8.2
2016-Apr-21 02:33N 50°09' W 003°32'9 9.3
2016-Apr-21 01:33N 50°13' W 003°18'1010.2
2016-Apr-21 00:33N 50°18' W 003°05'9 9.0
2016-Apr-20 23:33N 50°16' W 002°51'9 8.8
2016-Apr-20 22:33N 50°12' W 002°38'7 7.5
2016-Apr-20 21:33N 50°13' W 002°26'7 7.2
2016-Apr-20 20:33N 50°17' W 002°17'8 6.3
2016-Apr-20 19:15N 50°19' W 002°04'4 6.1
2016-Apr-20 18:33N 50°19' W 001°58'6 6.3
2016-Apr-20 17:33N 50°21' W 001°48'8 7.7
2016-Apr-20 16:33N 50°22' W 001°36'10 9.6
2016-Apr-20 15:33N 50°24' W 001°21'  

Dump ship's entire track history